TimeEDT,TemperatureF,Dew PointF,Humidity,Sea Level PressureIn,VisibilityMPH,Wind Direction,Wind SpeedMPH,Gust SpeedMPH,PrecipitationIn,Events,Conditions,WindDirDegrees,DateUTC
12:53 AM,75.0,70.0,84,29.84,10.0,Calm,Calm,-,N/A,,Clear,0,2013-06-13 04:53:00
1:53 AM,75.9,71.1,85,29.83,10.0,WNW,4.6,-,N/A,,Clear,300,2013-06-13 05:53:00
2:53 AM,75.9,70.0,82,29.83,10.0,Calm,Calm,-,N/A,,Clear,0,2013-06-13 06:53:00
3:53 AM,73.9,70.0,87,29.81,10.0,Calm,Calm,-,N/A,,Clear,0,2013-06-13 07:53:00
4:53 AM,75.0,68.0,79,29.80,10.0,WNW,4.6,-,N/A,,Clear,290,2013-06-13 08:53:00
5:53 AM,77.0,62.1,60,29.79,10.0,SW,4.6,-,N/A,,Clear,220,2013-06-13 09:53:00
6:53 AM,73.9,64.0,71,29.77,10.0,WSW,4.6,-,N/A,,Clear,240,2013-06-13 10:53:00
7:53 AM,79.0,64.9,62,29.78,10.0,WSW,6.9,-,N/A,,Clear,250,2013-06-13 11:53:00
8:53 AM,82.9,63.0,51,29.76,10.0,SW,5.8,-,N/A,,Clear,230,2013-06-13 12:53:00
9:53 AM,84.9,64.0,49,29.75,10.0,WSW,12.7,17.3,N/A,,Clear,250,2013-06-13 13:53:00
10:53 AM,87.1,64.9,48,29.73,10.0,West,10.4,18.4,N/A,,Clear,270,2013-06-13 14:53:00
11:53 AM,87.1,64.0,46,29.73,10.0,SSW,9.2,-,N/A,,Clear,200,2013-06-13 15:53:00
12:53 PM,90.0,66.0,45,29.69,10.0,Variable,6.9,-,N/A,,Clear,0,2013-06-13 16:53:00
1:53 PM,91.0,66.0,44,29.67,10.0,SW,17.3,21.9,N/A,,Clear,220,2013-06-13 17:53:00
2:53 PM,89.1,66.0,46,29.65,10.0,SW,15.0,19.6,N/A,,Scattered Clouds,220,2013-06-13 18:53:00
3:39 PM,89.6,66.2,46,29.71,10.0,SSW,11.5,-,N/A,Thunderstorm,Mostly Cloudy,210,2013-06-13 19:39:00
3:49 PM,82.4,66.2,58,29.79,2.5,NW,33.4,55.2,0.05,Rain-Thunderstorm,Thunderstorms and Rain,310,2013-06-13 19:49:00
3:53 PM,70.0,64.0,81,29.69,0.5,WNW,13.8,55.2,0.23,Rain-Thunderstorm,Heavy Thunderstorms and Rain,290,2013-06-13 19:53:00
4:00 PM,69.8,62.6,78,29.73,0.8,WNW,19.6,41.4,0.06,Rain-Thunderstorm,Heavy Thunderstorms and Rain,300,2013-06-13 20:00:00
4:03 PM,69.8,64.4,83,29.74,2.0,WNW,18.4,41.4,0.08,Rain-Thunderstorm,Heavy Thunderstorms and Rain,290,2013-06-13 20:03:00
4:12 PM,71.6,64.4,78,29.75,9.0,NW,10.4,25.3,0.08,Rain-Thunderstorm,Light Thunderstorms and Rain,320,2013-06-13 20:12:00
4:32 PM,71.6,64.4,78,29.77,10.0,NNW,5.8,-,0.08,,Mostly Cloudy,330,2013-06-13 20:32:00
4:53 PM,73.0,66.0,79,29.67,10.0,West,3.5,-,0.08,,Scattered Clouds,260,2013-06-13 20:53:00
5:24 PM,71.6,66.2,83,29.73,10.0,West,8.1,-,0.00,Thunderstorm,Mostly Cloudy,260,2013-06-13 21:24:00
5:42 PM,73.4,66.2,78,29.73,10.0,West,10.4,-,0.00,,Mostly Cloudy,260,2013-06-13 21:42:00
5:53 PM,73.0,66.0,79,29.68,10.0,West,11.5,-,0.00,,Scattered Clouds,260,2013-06-13 21:53:00
6:53 PM,73.0,64.0,73,29.68,10.0,West,8.1,17.3,N/A,,Clear,260,2013-06-13 22:53:00
7:53 PM,73.0,64.9,76,29.71,10.0,SW,4.6,-,N/A,,Clear,230,2013-06-13 23:53:00
8:53 PM,73.0,62.1,68,29.71,10.0,SW,3.5,-,N/A,,Clear,230,2013-06-14 00:53:00
9:53 PM,71.1,62.1,73,29.72,10.0,WNW,10.4,-,N/A,,Clear,290,2013-06-14 01:53:00
10:53 PM,72.0,61.0,68,29.73,10.0,NW,9.2,-,N/A,,Scattered Clouds,320,2013-06-14 02:53:00
11:53 PM,71.1,62.1,73,29.75,10.0,NW,3.5,-,N/A,,Overcast,310,2013-06-14 03:53:00